Details for Thomas Cook Airlines at EGAA




Go Back


Latest METAR
Local Time

EGAA 232350Z 13013KT 9000 BKN027 02/M01 Q1017

23/02/2018, 23:58:13

Description
Results
Thomas Cook Airlines Logo
Number of Pilots based at EGAA
1 Pilots Based here
Number of Thomas Cook Airlines Flights Departed from EGAA
0 Flights Departed
Number of Thomas Cook Airlines Flights Arrived at EGAA
0 Flights Arrived
Number of Thomas Cook Airlines Schedules Departing from EGAA
6 Schedules
Number of Thomas Cook Airlines Schedules Arriving at EGAA
6 Schedules
Number of Thomas Cook Airlines Schedules Departing from EGAA availible today
1 Schedules Today
Number of Thomas Cook Airlines Schedules Arriving at EGAA availible today
1 Schedules Today
Average Landing Rate at EGAA
-248 fpm
Thomas Cook Airlines Average Landing Rate at EGAA
0 fpm
Total Fuel Purchased at EGAA by Thomas Cook Airlines
0.00 kgs / 0.00 lbs

Pilots Based at EGAA


Pilot ID
Pilot Name
Pilot Rank
No. of Flights
No. of Flying Hours
Dean Cullen
121
161.47
Content